Time;durP1;ratioP1;P1;durP2;ratioP2;P2;SDS_P1;SDS_P2;PMS_P1;PMS_P2;Temp;Humidity;BMP_temperature;BMP_pressure;BME280_temperature;BME280_humidity;BME280_pressure;Samples;Min_cycle;Max_cycle;Signal;HPM_P1;HPM_P2
2021/12/29 00:02:05;;;;;;;130.90;31.60;;;6.60;99.90;;;;;;4982620;28;20314;-64
2021/12/29 00:04:31;;;;;;;109.80;29.07;;;6.60;99.90;;;;;;4966144;28;20043;-63
2021/12/29 00:06:58;;;;;;;142.30;31.13;;;6.60;99.90;;;;;;4962988;28;20520;-64
2021/12/29 00:09:24;;;;;;;156.13;34.40;;;6.60;99.90;;;;;;4980785;28;20098;-63
2021/12/29 00:11:51;;;;;;;99.03;28.65;;;6.60;99.90;;;;;;4964934;28;20074;-63
2021/12/29 00:14:17;;;;;;;108.78;26.40;;;6.60;99.90;;;;;;4967095;28;20105;-63
2021/12/29 00:16:43;;;;;;;85.07;23.65;;;6.50;99.90;;;;;;4964438;28;20046;-64
2021/12/29 00:19:08;;;;;;;102.55;24.70;;;6.50;99.90;;;;;;4965253;28;20039;-63
2021/12/29 00:21:36;;;;;;;72.93;22.33;;;6.50;99.90;;;;;;4980959;28;20118;-64
2021/12/29 00:24:05;;;;;;;70.20;20.52;;;6.50;99.90;;;;;;4982312;28;20065;-63
2021/12/29 00:26:31;;;;;;;75.32;21.58;;;6.50;99.90;;;;;;4964125;28;20126;-64
2021/12/29 00:29:01;;;;;;;73.32;21.13;;;6.50;99.90;;;;;;4982527;28;20058;-66
2021/12/29 00:31:28;;;;;;;116.43;24.60;;;6.50;99.90;;;;;;4980507;28;20461;-63
2021/12/29 00:33:54;;;;;;;73.55;21.42;;;6.50;99.90;;;;;;4983572;28;20047;-63
2021/12/29 00:36:20;;;;;;;74.70;19.10;;;6.50;99.90;;;;;;4966079;28;20049;-63
2021/12/29 00:38:45;;;;;;;61.13;18.20;;;6.50;99.90;;;;;;4966566;28;20066;-63
2021/12/29 00:41:12;;;;;;;66.85;19.00;;;6.50;99.90;;;;;;4965995;28;20451;-66
2021/12/29 00:43:38;;;;;;;72.63;20.42;;;6.50;99.90;;;;;;4965635;28;20046;-64
2021/12/29 00:46:07;;;;;;;85.45;21.75;;;6.40;99.90;;;;;;4983977;28;20530;-63
2021/12/29 00:48:39;;;;;;;83.18;20.73;;;6.40;99.90;;;;;;4984164;28;20042;-63
2021/12/29 00:51:05;;;;;;;86.93;21.15;;;6.40;99.90;;;;;;4966328;28;20054;-63
2021/12/29 00:53:32;;;;;;;80.45;21.17;;;6.50;99.90;;;;;;4977984;28;20043;-63
2021/12/29 00:55:59;;;;;;;120.35;24.50;;;6.50;99.90;;;;;;4950483;28;20099;-62
2021/12/29 00:58:24;;;;;;;102.35;22.33;;;6.50;99.90;;;;;;4966397;28;20126;-63
2021/12/29 01:00:50;;;;;;;97.28;21.17;;;6.50;99.90;;;;;;4969191;28;20047;-63
2021/12/29 01:03:16;;;;;;;92.88;21.15;;;6.40;99.90;;;;;;4987689;28;20046;-63
2021/12/29 01:05:43;;;;;;;97.43;20.60;;;6.50;99.90;;;;;;4987744;28;20046;-63
2021/12/29 01:08:13;;;;;;;100.35;21.13;;;6.50;99.90;;;;;;4987193;28;20321;-63
2021/12/29 01:10:41;;;;;;;98.15;20.95;;;6.50;99.90;;;;;;4987515;28;20070;-63
2021/12/29 01:13:09;;;;;;;119.32;22.77;;;6.50;99.90;;;;;;4987522;28;20042;-63
2021/12/29 01:18:27;;;;;;;124.30;23.55;;;6.50;99.90;;;;;;4987320;28;20186;-63
2021/12/29 01:20:54;;;;;;;164.18;25.23;;;6.50;99.90;;;;;;4970146;28;20047;-63
2021/12/29 01:23:20;;;;;;;184.07;26.52;;;6.50;99.90;;;;;;4968789;28;20061;-63
2021/12/29 01:25:45;;;;;;;142.75;24.25;;;6.50;99.90;;;;;;4968936;28;20046;-64
2021/12/29 01:28:11;;;;;;;127.57;22.83;;;6.60;99.90;;;;;;4969446;28;20062;-64
2021/12/29 01:30:37;;;;;;;126.03;24.03;;;6.60;99.90;;;;;;4987003;28;20058;-64
2021/12/29 01:33:06;;;;;;;126.40;25.13;;;6.60;99.90;;;;;;4969359;28;20385;-64
2021/12/29 01:35:33;;;;;;;134.85;24.05;;;6.60;99.90;;;;;;4969208;28;20070;-63
2021/12/29 01:38:03;;;;;;;193.85;29.00;;;6.60;99.90;;;;;;4986238;28;20082;-63
2021/12/29 01:40:29;;;;;;;155.30;27.48;;;6.60;99.90;;;;;;4987454;28;20043;-63
2021/12/29 01:42:55;;;;;;;122.97;24.42;;;6.60;99.90;;;;;;5003409;28;20090;-63
2021/12/29 01:45:21;;;;;;;146.90;26.85;;;6.60;99.90;;;;;;4969699;28;20049;-63
2021/12/29 01:47:48;;;;;;;112.28;26.25;;;6.60;99.90;;;;;;4968971;28;20385;-63
2021/12/29 01:50:15;;;;;;;111.72;25.48;;;6.60;99.90;;;;;;4969146;28;20047;-64
2021/12/29 01:52:42;;;;;;;129.10;27.67;;;6.70;99.90;;;;;;4988446;28;20038;-63
2021/12/29 01:55:15;;;;;;;139.75;26.63;;;6.70;99.90;;;;;;5006416;28;20077;-63
2021/12/29 01:57:42;;;;;;;161.20;27.25;;;6.70;99.90;;;;;;4982207;28;20065;-63
2021/12/29 02:00:14;;;;;;;152.20;25.95;;;6.70;99.90;;;;;;4969410;28;20089;-63
2021/12/29 02:02:40;;;;;;;163.85;28.67;;;6.70;99.90;;;;;;4968670;28;20066;-63
2021/12/29 02:05:07;;;;;;;178.90;30.08;;;6.70;99.90;;;;;;4986675;28;20042;-63
2021/12/29 02:07:32;;;;;;;177.02;29.75;;;6.70;99.90;;;;;;4986381;28;20047;-63
2021/12/29 02:09:58;;;;;;;184.48;30.40;;;6.70;99.90;;;;;;4986283;28;20053;-63
2021/12/29 02:12:24;;;;;;;163.20;29.92;;;6.70;99.90;;;;;;4986707;28;20053;-63
2021/12/29 02:14:49;;;;;;;189.13;31.20;;;6.70;99.90;;;;;;4968838;28;20088;-64
2021/12/29 02:17:15;;;;;;;194.60;32.30;;;6.70;99.90;;;;;;4986532;28;20046;-64
2021/12/29 02:19:46;;;;;;;202.65;32.70;;;6.70;99.90;;;;;;4968354;28;20061;-64
2021/12/29 02:22:34;;;;;;;187.48;32.75;;;6.70;99.90;;;;;;4985921;28;20145;-64
2021/12/29 02:27:37;;;;;;;204.10;33.38;;;6.70;99.90;;;;;;4986646;28;20055;-64
2021/12/29 02:30:05;;;;;;;216.07;33.17;;;6.70;99.90;;;;;;4967930;28;20043;-64
2021/12/29 02:32:30;;;;;;;181.80;32.15;;;6.70;99.90;;;;;;4968056;28;20046;-64
2021/12/29 02:34:56;;;;;;;204.03;32.83;;;6.70;99.90;;;;;;4986055;28;20053;-64
2021/12/29 02:37:24;;;;;;;188.17;30.10;;;6.70;99.90;;;;;;4985901;28;20285;-64
2021/12/29 02:39:51;;;;;;;175.85;30.52;;;6.70;99.90;;;;;;4968079;28;20038;-64
2021/12/29 02:42:24;;;;;;;134.98;25.85;;;6.80;99.90;;;;;;4985749;28;20406;-64
2021/12/29 02:44:51;;;;;;;97.90;22.13;;;6.80;99.90;;;;;;4968319;28;20049;-64
2021/12/29 02:47:17;;;;;;;119.40;22.98;;;6.80;99.90;;;;;;4985962;28;20050;-64
2021/12/29 02:49:45;;;;;;;129.02;23.70;;;6.80;99.90;;;;;;4985538;28;20080;-64
2021/12/29 02:52:13;;;;;;;142.05;22.50;;;6.80;99.90;;;;;;4968200;28;20053;-64
2021/12/29 02:54:39;;;;;;;90.68;20.90;;;6.80;99.90;;;;;;4995506;28;20134;-64
2021/12/29 02:57:04;;;;;;;138.25;20.98;;;6.80;99.90;;;;;;4985658;28;20050;-64
2021/12/29 02:59:30;;;;;;;88.22;18.48;;;6.80;99.90;;;;;;4985424;28;20046;-64
2021/12/29 03:01:56;;;;;;;89.73;19.23;;;6.80;99.90;;;;;;4967920;28;20054;-64
2021/12/29 03:04:22;;;;;;;91.20;19.17;;;6.80;99.90;;;;;;4968136;28;20350;-64
2021/12/29 03:06:47;;;;;;;102.60;20.20;;;6.80;99.90;;;;;;4985280;28;20081;-64
2021/12/29 03:09:16;;;;;;;119.03;21.23;;;6.90;99.90;;;;;;4985323;28;20305;-64
2021/12/29 03:11:42;;;;;;;95.28;18.92;;;6.90;99.90;;;;;;4985294;28;20069;-64
2021/12/29 03:14:09;;;;;;;104.18;19.40;;;6.90;99.90;;;;;;4985210;28;20110;-64
2021/12/29 03:16:36;;;;;;;136.35;22.95;;;6.90;99.90;;;;;;4952185;28;20150;-64
2021/12/29 03:19:04;;;;;;;139.80;20.85;;;6.90;99.90;;;;;;4985197;28;20445;-64
2021/12/29 03:21:31;;;;;;;146.20;22.20;;;6.90;99.90;;;;;;4983437;28;20125;-64
2021/12/29 03:23:57;;;;;;;118.75;20.77;;;7.00;99.90;;;;;;4984450;28;20047;-64
2021/12/29 03:26:23;;;;;;;116.80;21.27;;;7.00;99.90;;;;;;4985358;28;20043;-64
2021/12/29 03:28:49;;;;;;;131.70;22.77;;;7.00;99.90;;;;;;4985393;28;20449;-64
2021/12/29 03:31:17;;;;;;;117.20;23.13;;;7.00;99.90;;;;;;4984542;28;20058;-64
2021/12/29 03:33:44;;;;;;;125.65;21.95;;;7.00;99.90;;;;;;4984701;28;20094;-64
2021/12/29 03:36:11;;;;;;;128.77;22.77;;;7.00;99.90;;;;;;4967567;28;20099;-64
2021/12/29 03:38:40;;;;;;;144.73;24.80;;;7.00;99.90;;;;;;4984785;28;20057;-64
2021/12/29 03:41:11;;;;;;;125.15;24.17;;;7.00;99.90;;;;;;4967377;28;20433;-64
2021/12/29 03:43:38;;;;;;;113.63;25.35;;;7.00;99.90;;;;;;4990866;28;20070;-64
2021/12/29 03:46:05;;;;;;;125.07;26.75;;;7.00;99.90;;;;;;4987237;28;20046;-64
2021/12/29 03:48:32;;;;;;;137.02;27.17;;;7.10;99.90;;;;;;5004096;28;20068;-64
2021/12/29 03:50:59;;;;;;;136.05;29.05;;;7.10;99.90;;;;;;4992579;28;20073;-64
2021/12/29 03:53:25;;;;;;;140.27;30.20;;;7.10;99.90;;;;;;4978438;28;20055;-64
2021/12/29 03:55:51;;;;;;;169.93;31.02;;;7.10;99.90;;;;;;4984613;28;20462;-64
2021/12/29 03:58:18;;;;;;;165.00;31.50;;;7.10;99.90;;;;;;4984767;28;20061;-64
2021/12/29 04:00:45;;;;;;;134.35;29.40;;;7.10;99.90;;;;;;4984390;28;20142;-64
2021/12/29 04:03:11;;;;;;;173.80;32.97;;;7.10;99.90;;;;;;4984290;28;20046;-64
2021/12/29 04:05:37;;;;;;;173.70;33.97;;;7.10;99.90;;;;;;4966711;28;20113;-64
2021/12/29 04:08:03;;;;;;;134.40;30.20;;;7.10;99.90;;;;;;4966991;28;20098;-64
2021/12/29 04:10:30;;;;;;;162.38;31.85;;;7.10;99.90;;;;;;4984275;28;20050;-64
2021/12/29 04:12:56;;;;;;;217.52;33.80;;;7.10;99.90;;;;;;4984541;28;20106;-64
2021/12/29 04:15:25;;;;;;;159.80;29.88;;;7.10;99.90;;;;;;4966095;28;20129;-64
2021/12/29 04:17:57;;;;;;;157.90;29.85;;;7.10;99.90;;;;;;4984414;28;20047;-64
2021/12/29 04:23:10;;;;;;;134.95;29.63;;;7.10;99.90;;;;;;4984081;28;20054;-64
2021/12/29 04:25:37;;;;;;;;;;;7.10;99.90;;;;;;4966764;28;20047;-64
2021/12/29 04:28:08;;;;;;;135.95;28.23;;;7.10;99.90;;;;;;4984072;28;20374;-65
2021/12/29 04:30:34;;;;;;;157.80;29.17;;;7.10;99.90;;;;;;4950147;28;20058;-64
2021/12/29 04:33:00;;;;;;;123.55;26.65;;;7.10;99.90;;;;;;4950130;29;20047;-64
2021/12/29 04:35:26;;;;;;;175.60;30.17;;;7.10;99.90;;;;;;4952872;29;20447;-64
2021/12/29 04:37:52;;;;;;;115.82;25.77;;;7.10;99.90;;;;;;4967068;28;20294;-64
2021/12/29 04:40:20;;;;;;;130.93;26.95;;;7.10;99.90;;;;;;4967111;29;20079;-63
2021/12/29 04:42:46;;;;;;;135.48;27.35;;;7.10;99.90;;;;;;4957913;28;20055;-64
2021/12/29 04:45:12;;;;;;;129.02;27.58;;;7.10;99.90;;;;;;4950751;29;20054;-64
2021/12/29 04:47:41;;;;;;;131.85;26.40;;;7.20;99.90;;;;;;4968595;29;20349;-64
2021/12/29 04:50:18;;;;;;;126.55;26.90;;;7.20;99.90;;;;;;4966881;28;20131;-64
2021/12/29 04:52:45;;;;;;;128.98;28.40;;;7.20;99.90;;;;;;4966516;28;20073;-64
2021/12/29 04:55:11;;;;;;;;;;;7.20;99.90;;;;;;4972971;28;20059;-64
2021/12/29 04:57:36;;;;;;;117.63;27.55;;;7.10;99.90;;;;;;4970681;28;19938;-63
2021/12/29 05:00:05;;;;;;;139.70;29.52;;;7.20;99.90;;;;;;4968722;28;20062;-65
2021/12/29 05:02:31;;;;;;;110.97;29.58;;;7.10;99.90;;;;;;4966536;28;20047;-64
2021/12/29 05:05:00;;;;;;;120.97;29.08;;;7.20;99.90;;;;;;4968636;28;20114;-64
2021/12/29 05:10:10;;;;;;;163.20;34.20;;;7.20;99.90;;;;;;4968245;29;20119;-64
2021/12/29 05:12:36;;;;;;;154.95;32.70;;;7.20;99.90;;;;;;4966815;28;20047;-65
2021/12/29 05:15:03;;;;;;;130.55;32.28;;;7.20;99.90;;;;;;4967130;29;20047;-64
2021/12/29 05:17:28;;;;;;;;;;;7.20;99.90;;;;;;4966853;29;20047;-64
2021/12/29 05:19:54;;;;;;;125.28;30.02;;;7.10;99.90;;;;;;4967848;28;19936;-64
2021/12/29 05:22:20;;;;;;;149.97;31.63;;;7.20;99.90;;;;;;4966157;29;20075;-64
2021/12/29 05:24:45;;;;;;;132.27;31.73;;;7.20;99.90;;;;;;4968597;28;20111;-64
2021/12/29 05:27:11;;;;;;;169.03;34.10;;;7.20;99.90;;;;;;4966644;29;20094;-64
2021/12/29 05:29:38;;;;;;;178.50;34.23;;;7.20;99.90;;;;;;4967703;28;20127;-64
2021/12/29 05:32:04;;;;;;;172.88;33.00;;;7.20;99.90;;;;;;4975253;28;20305;-64
2021/12/29 05:34:30;;;;;;;162.35;32.95;;;7.20;99.90;;;;;;4968309;28;20110;-64
2021/12/29 05:36:55;;;;;;;152.33;32.87;;;7.20;99.90;;;;;;4969571;28;20054;-64
2021/12/29 05:39:21;;;;;;;162.13;33.83;;;7.20;99.90;;;;;;4985138;28;20077;-64
2021/12/29 05:41:47;;;;;;;155.63;32.60;;;7.20;99.90;;;;;;4986289;28;20298;-65
2021/12/29 05:44:12;;;;;;;150.50;31.73;;;7.30;99.90;;;;;;4986813;28;20115;-65
2021/12/29 05:46:38;;;;;;;161.53;31.47;;;7.30;99.90;;;;;;4986445;28;20314;-64
2021/12/29 05:49:03;;;;;;;214.20;34.87;;;7.20;99.90;;;;;;4968758;28;20086;-64
2021/12/29 05:51:29;;;;;;;166.37;32.53;;;7.20;99.90;;;;;;4986642;28;20453;-64
2021/12/29 05:53:55;;;;;;;159.83;31.27;;;7.20;99.90;;;;;;4992014;28;20290;-64
2021/12/29 05:56:21;;;;;;;132.93;29.98;;;7.30;99.90;;;;;;4974769;28;20050;-64
2021/12/29 05:58:47;;;;;;;132.32;30.88;;;7.20;99.90;;;;;;4984251;28;20082;-64
2021/12/29 06:01:12;;;;;;;131.60;30.33;;;7.30;99.90;;;;;;4979943;28;20042;-64
2021/12/29 06:03:39;;;;;;;138.40;30.83;;;7.30;99.90;;;;;;4986058;28;20102;-64
2021/12/29 06:06:05;;;;;;;142.63;31.05;;;7.20;99.90;;;;;;4969248;28;20294;-64
2021/12/29 06:08:31;;;;;;;128.50;32.00;;;7.30;99.90;;;;;;4985902;28;20042;-64
2021/12/29 06:10:56;;;;;;;108.65;28.83;;;7.30;99.90;;;;;;4969213;28;20058;-64
2021/12/29 06:13:22;;;;;;;150.87;32.47;;;7.30;99.90;;;;;;4968944;28;20109;-64
2021/12/29 06:15:47;;;;;;;140.33;31.63;;;7.30;99.90;;;;;;4968550;28;20055;-64
2021/12/29 06:18:13;;;;;;;121.30;31.30;;;7.30;99.90;;;;;;4968825;28;20038;-64
2021/12/29 06:20:39;;;;;;;123.00;31.67;;;7.30;99.90;;;;;;4986650;28;20196;-64
2021/12/29 06:23:12;;;;;;;138.73;32.15;;;7.30;99.90;;;;;;4968174;28;20102;-64
2021/12/29 06:25:39;;;;;;;126.80;30.70;;;7.30;99.90;;;;;;4986312;28;20046;-64
2021/12/29 06:28:04;;;;;;;106.70;30.52;;;7.30;99.90;;;;;;4985990;28;20054;-64
2021/12/29 06:30:30;;;;;;;152.68;33.28;;;7.30;99.90;;;;;;4986078;28;20074;-64
2021/12/29 06:32:56;;;;;;;165.38;34.63;;;7.30;99.90;;;;;;4985792;28;20077;-64
2021/12/29 06:35:22;;;;;;;159.77;32.70;;;7.30;99.90;;;;;;4985867;28;20083;-64
2021/12/29 06:37:48;;;;;;;131.15;31.52;;;7.40;99.90;;;;;;4967021;28;20324;-63
2021/12/29 06:40:14;;;;;;;131.48;31.90;;;7.30;99.90;;;;;;4967285;28;20121;-63
2021/12/29 06:42:41;;;;;;;107.07;30.35;;;7.30;99.90;;;;;;4971194;28;20074;-66
2021/12/29 06:45:07;;;;;;;;;;;7.30;99.90;;;;;;4981598;28;20051;-67
2021/12/29 06:47:33;;;;;;;170.82;34.55;;;7.30;99.90;;;;;;4984842;28;19990;-60
2021/12/29 06:49:59;;;;;;;122.65;31.60;;;7.30;99.90;;;;;;4984121;28;20039;-63
2021/12/29 06:52:25;;;;;;;133.20;32.72;;;7.30;99.90;;;;;;4984554;28;20141;-67
2021/12/29 06:54:51;;;;;;;158.27;34.30;;;7.30;99.90;;;;;;4985505;28;20050;-64
2021/12/29 06:57:17;;;;;;;154.70;33.40;;;7.30;99.90;;;;;;4966961;28;20073;-63
2021/12/29 06:59:42;;;;;;;148.40;32.67;;;7.30;99.90;;;;;;4985900;28;20043;-63
2021/12/29 07:02:10;;;;;;;127.13;30.53;;;7.30;99.90;;;;;;4985218;28;20035;-64
2021/12/29 07:04:36;;;;;;;174.43;35.55;;;7.30;99.90;;;;;;4968276;28;20066;-64
2021/12/29 07:07:02;;;;;;;152.90;32.70;;;7.30;99.90;;;;;;4984500;28;20634;-64
2021/12/29 07:09:30;;;;;;;152.90;34.63;;;7.30;99.90;;;;;;4983290;28;20095;-63
2021/12/29 07:11:55;;;;;;;178.27;35.50;;;7.30;99.90;;;;;;4984380;28;20129;-63
2021/12/29 07:14:22;;;;;;;159.50;33.42;;;7.30;99.90;;;;;;4983776;28;20046;-63
2021/12/29 07:16:49;;;;;;;153.30;32.63;;;7.40;99.90;;;;;;4967468;28;20524;-63
2021/12/29 07:19:16;;;;;;;150.52;32.03;;;7.40;99.90;;;;;;4985289;28;20043;-63
2021/12/29 07:21:42;;;;;;;181.90;34.97;;;7.40;99.90;;;;;;4984982;28;20043;-68
2021/12/29 07:24:08;;;;;;;194.98;36.42;;;7.40;99.90;;;;;;4984560;28;20082;-69
2021/12/29 07:26:34;;;;;;;199.80;36.03;;;7.40;99.90;;;;;;4968074;28;20081;-66
2021/12/29 07:29:00;;;;;;;163.43;32.92;;;7.40;99.90;;;;;;4967160;28;20314;-66
2021/12/29 07:31:27;;;;;;;211.50;37.22;;;7.40;99.90;;;;;;4984598;28;20074;-66
2021/12/29 07:33:54;;;;;;;194.85;37.92;;;7.40;99.90;;;;;;4966824;28;20055;-66
2021/12/29 07:36:20;;;;;;;226.63;37.58;;;7.40;99.90;;;;;;4983985;28;20058;-66
2021/12/29 07:38:45;;;;;;;165.73;32.53;;;7.40;99.90;;;;;;4957061;28;20054;-66
2021/12/29 07:41:12;;;;;;;242.30;37.15;;;7.40;99.90;;;;;;4982684;28;20435;-66
2021/12/29 07:43:39;;;;;;;193.57;34.90;;;7.40;99.90;;;;;;4984311;28;20098;-65
2021/12/29 07:46:06;;;;;;;237.48;36.38;;;7.40;99.90;;;;;;4984070;28;20050;-66
2021/12/29 07:48:33;;;;;;;208.57;35.70;;;7.40;99.90;;;;;;4965959;28;20047;-67
2021/12/29 07:51:02;;;;;;;185.13;32.67;;;7.40;99.90;;;;;;4984776;28;20126;-67
2021/12/29 07:53:28;;;;;;;178.70;32.65;;;7.40;99.90;;;;;;4967036;28;20059;-65
2021/12/29 07:55:53;;;;;;;173.13;33.55;;;7.40;99.90;;;;;;4991279;28;20066;-69
2021/12/29 07:58:19;;;;;;;178.70;32.10;;;7.40;99.90;;;;;;4967208;28;20051;-68
2021/12/29 08:00:45;;;;;;;194.82;34.30;;;7.40;99.90;;;;;;4967117;28;20042;-66
2021/12/29 08:03:12;;;;;;;174.23;31.10;;;7.40;99.90;;;;;;4984672;28;20537;-64
2021/12/29 08:05:39;;;;;;;190.85;33.92;;;7.40;99.90;;;;;;4966420;28;20054;-69
2021/12/29 08:08:06;;;;;;;153.35;30.23;;;7.50;99.90;;;;;;4965714;28;20048;-68
2021/12/29 08:10:40;;;;;;;142.00;29.20;;;7.50;99.90;;;;;;4949701;28;20043;-64
2021/12/29 08:13:07;;;;;;;141.38;28.27;;;7.50;99.90;;;;;;4982700;28;20051;-63
2021/12/29 08:15:33;;;;;;;135.77;26.95;;;7.50;99.90;;;;;;4965328;28;20085;-68
2021/12/29 08:18:05;;;;;;;148.95;29.50;;;7.50;99.90;;;;;;4966094;28;20061;-65
2021/12/29 08:20:38;;;;;;;135.23;28.13;;;7.50;99.90;;;;;;4982256;28;20374;-65
2021/12/29 08:23:06;;;;;;;118.65;25.95;;;7.50;99.90;;;;;;4978895;28;20054;-64
2021/12/29 08:25:32;;;;;;;103.97;24.75;;;7.50;99.90;;;;;;4986406;28;20051;-64
2021/12/29 08:27:58;;;;;;;139.90;27.75;;;7.50;99.90;;;;;;4984003;28;20443;-64
2021/12/29 08:30:24;;;;;;;134.65;26.95;;;7.50;99.90;;;;;;4984237;28;20039;-64
2021/12/29 08:32:50;;;;;;;146.43;28.42;;;7.60;99.90;;;;;;4983530;28;20070;-64
2021/12/29 08:35:16;;;;;;;129.82;28.70;;;7.60;99.90;;;;;;4982794;28;20062;-63
2021/12/29 08:37:42;;;;;;;113.82;26.38;;;7.60;99.90;;;;;;4981031;28;20450;-64
2021/12/29 08:40:10;;;;;;;135.15;28.95;;;7.60;99.90;;;;;;4983757;28;20054;-65
2021/12/29 08:42:37;;;;;;;126.80;27.65;;;7.60;99.90;;;;;;4977215;28;20062;-64
2021/12/29 08:45:03;;;;;;;;;;;7.60;99.90;;;;;;4932197;29;20099;-63
2021/12/29 08:47:29;;;;;;;147.15;27.58;;;7.60;99.90;;;;;;4966021;28;20009;-62
2021/12/29 08:49:55;;;;;;;123.30;27.53;;;7.60;99.90;;;;;;4969139;28;20055;-64
2021/12/29 08:52:21;;;;;;;116.50;25.30;;;7.60;99.90;;;;;;4983950;28;20309;-64
2021/12/29 08:54:47;;;;;;;135.13;28.55;;;7.60;99.90;;;;;;4968087;28;20438;-64
2021/12/29 08:57:12;;;;;;;109.28;26.30;;;7.60;99.90;;;;;;4983872;28;20050;-65
2021/12/29 08:59:38;;;;;;;116.13;28.03;;;7.60;99.90;;;;;;4966386;28;20091;-64
2021/12/29 09:02:04;;;;;;;125.10;27.23;;;7.60;99.90;;;;;;4966071;28;20298;-66
2021/12/29 09:04:29;;;;;;;115.40;27.23;;;7.60;99.90;;;;;;4983820;28;20101;-65
2021/12/29 09:06:55;;;;;;;106.33;26.33;;;7.60;99.90;;;;;;4984095;28;20078;-66
2021/12/29 09:09:21;;;;;;;105.50;26.50;;;7.70;99.90;;;;;;4989062;28;20069;-65
2021/12/29 09:11:47;;;;;;;107.82;26.88;;;7.60;99.90;;;;;;4971956;28;20055;-66
2021/12/29 09:14:13;;;;;;;143.95;28.92;;;7.70;99.90;;;;;;4983878;28;20194;-65
2021/12/29 09:16:38;;;;;;;114.43;26.07;;;7.70;99.90;;;;;;4966329;28;20043;-64
2021/12/29 09:19:04;;;;;;;110.60;26.53;;;7.70;99.90;;;;;;4965994;28;20098;-65
2021/12/29 09:21:32;;;;;;;106.85;24.63;;;7.70;99.90;;;;;;4986362;28;20294;-66
2021/12/29 09:23:57;;;;;;;113.40;25.80;;;7.70;99.90;;;;;;4961055;29;20047;-64
2021/12/29 09:26:24;;;;;;;152.83;28.77;;;7.80;99.90;;;;;;5000852;28;20057;-69
2021/12/29 09:28:50;;;;;;;134.45;26.67;;;7.70;99.90;;;;;;4985548;28;20514;-63
2021/12/29 09:31:18;;;;;;;171.35;28.30;;;7.80;99.90;;;;;;4986989;28;20719;-65
2021/12/29 09:33:44;;;;;;;102.78;24.50;;;7.80;99.90;;;;;;4986070;28;20053;-63
2021/12/29 09:36:10;;;;;;;133.38;25.92;;;7.80;99.90;;;;;;4986250;28;20091;-63
2021/12/29 09:38:40;;;;;;;137.48;26.58;;;7.80;99.90;;;;;;4949575;28;20166;-63
2021/12/29 09:41:12;;;;;;;120.50;24.95;;;7.80;99.90;;;;;;4984231;28;20757;-63
2021/12/29 09:43:40;;;;;;;97.50;22.83;;;7.80;99.90;;;;;;4983742;28;20046;-65
2021/12/29 09:46:06;;;;;;;111.25;22.05;;;7.90;99.90;;;;;;4963424;28;20039;-66
2021/12/29 09:48:33;;;;;;;106.03;22.92;;;7.90;99.90;;;;;;4983202;28;20085;-65
2021/12/29 09:50:59;;;;;;;119.88;22.88;;;7.90;99.90;;;;;;4984544;28;20105;-65
2021/12/29 09:53:25;;;;;;;182.63;26.80;;;7.90;99.90;;;;;;4968470;28;20039;-64
2021/12/29 09:55:50;;;;;;;139.55;24.13;;;7.90;99.90;;;;;;4972908;28;20082;-65
2021/12/29 09:58:17;;;;;;;115.33;21.70;;;7.90;99.90;;;;;;4955086;28;20145;-60
2021/12/29 10:00:50;;;;;;;130.25;21.30;;;7.90;99.90;;;;;;4967984;28;20051;-66
2021/12/29 10:03:20;;;;;;;172.05;23.63;;;7.90;99.90;;;;;;4969166;28;20062;-64
2021/12/29 10:05:49;;;;;;;142.38;23.75;;;7.90;99.90;;;;;;4968473;28;20065;-64
2021/12/29 10:08:30;;;;;;;142.10;23.48;;;7.90;99.90;;;;;;4985833;28;20042;-65
2021/12/29 10:10:59;;;;;;;163.18;24.88;;;7.90;99.90;;;;;;4980835;28;20615;-65
2021/12/29 10:13:33;;;;;;;123.43;22.65;;;7.90;99.90;;;;;;4968776;28;20057;-64
2021/12/29 10:16:14;;;;;;;141.38;24.50;;;8.00;99.90;;;;;;4969338;28;20051;-64
2021/12/29 10:18:43;;;;;;;109.68;22.25;;;8.00;99.90;;;;;;4964989;28;20119;-66
2021/12/29 10:21:17;;;;;;;110.03;21.95;;;8.00;99.90;;;;;;4972153;28;20090;-64
2021/12/29 10:23:46;;;;;;;102.47;21.10;;;8.00;99.90;;;;;;4980789;28;20039;-64
2021/12/29 10:26:19;;;;;;;83.80;20.45;;;8.00;99.90;;;;;;4984685;28;20039;-64
2021/12/29 10:28:48;;;;;;;67.78;19.38;;;8.00;99.90;;;;;;4967915;28;20057;-64
2021/12/29 10:31:25;;;;;;;68.85;18.17;;;8.10;99.90;;;;;;4982879;28;20050;-64
2021/12/29 10:33:56;;;;;;;63.60;17.90;;;8.10;99.90;;;;;;4934019;29;20056;-65
2021/12/29 10:36:32;;;;;;;61.72;18.17;;;8.10;99.90;;;;;;4946371;29;20037;-66
2021/12/29 10:39:02;;;;;;;71.57;18.10;;;8.10;99.90;;;;;;4946726;29;20040;-65
2021/12/29 10:41:29;;;;;;;60.65;18.33;;;8.10;99.90;;;;;;4940534;29;20051;-65
2021/12/29 10:44:01;;;;;;;79.60;19.13;;;8.10;99.90;;;;;;4945172;29;20061;-65
2021/12/29 10:46:31;;;;;;;64.25;18.27;;;8.20;99.90;;;;;;4945399;29;20050;-67
2021/12/29 10:48:59;;;;;;;69.10;18.33;;;8.20;99.90;;;;;;4945842;29;20483;-65
2021/12/29 10:51:31;;;;;;;76.63;19.67;;;8.10;99.90;;;;;;4945861;29;20052;-66
2021/12/29 10:54:15;;;;;;;57.97;18.83;;;8.10;99.90;;;;;;4955812;29;20066;-64
2021/12/29 10:56:45;;;;;;;64.65;18.85;;;8.10;99.90;;;;;;4943074;29;20036;-62
2021/12/29 10:59:21;;;;;;;53.55;16.70;;;8.20;99.90;;;;;;4945503;29;20048;-64
2021/12/29 11:01:48;;;;;;;60.03;18.23;;;8.20;99.90;;;;;;4939642;29;20031;-65
2021/12/29 11:04:15;;;;;;;44.65;16.02;;;8.20;99.90;;;;;;4945464;29;20047;-65
2021/12/29 11:06:43;;;;;;;53.83;16.88;;;8.20;99.90;;;;;;4944943;29;20078;-64
2021/12/29 11:09:10;;;;;;;52.58;16.98;;;8.20;99.90;;;;;;4945978;29;20130;-64
2021/12/29 11:11:39;;;;;;;47.63;16.75;;;8.20;99.90;;;;;;4946202;29;20665;-66
2021/12/29 11:14:09;;;;;;;54.40;17.88;;;8.20;99.90;;;;;;4946927;28;20047;-67
2021/12/29 11:16:34;;;;;;;46.70;16.38;;;8.20;99.90;;;;;;4944615;29;20047;-65
2021/12/29 11:19:00;;;;;;;38.70;15.73;;;8.30;99.90;;;;;;4945648;29;20127;-65
2021/12/29 11:21:29;;;;;;;41.90;15.93;;;8.30;99.90;;;;;;4944709;29;20111;-65
2021/12/29 11:23:56;;;;;;;55.50;16.30;;;8.20;99.90;;;;;;4947676;29;20323;-66
2021/12/29 11:26:29;;;;;;;;;;;8.20;99.90;;;;;;4945574;29;20048;-67
2021/12/29 11:29:07;;;;;;;40.28;15.40;;;8.20;99.90;;;;;;4944271;29;19941;-66
2021/12/29 11:31:40;;;;;;;40.92;14.57;;;8.20;99.90;;;;;;4956574;28;20475;-65
2021/12/29 11:34:26;;;;;;;44.42;16.02;;;8.20;99.90;;;;;;4972330;28;20117;-65
2021/12/29 11:37:14;;;;;;;48.92;15.55;;;8.20;99.90;;;;;;4967402;28;20114;-65
2021/12/29 11:39:45;;;;;;;40.63;15.30;;;8.20;99.90;;;;;;4984696;28;20058;-65
2021/12/29 11:42:12;;;;;;;38.63;15.73;;;8.20;99.90;;;;;;4964266;28;20046;-65
2021/12/29 11:44:39;;;;;;;44.30;15.40;;;8.20;99.90;;;;;;4983402;28;20047;-69
2021/12/29 11:47:07;;;;;;;48.75;16.20;;;8.30;99.90;;;;;;4966835;28;20043;-68
2021/12/29 11:49:32;;;;;;;37.85;13.98;;;8.30;99.90;;;;;;4980321;28;20047;-67
2021/12/29 11:52:19;;;;;;;45.72;14.40;;;8.30;99.90;;;;;;4974405;28;20070;-67
2021/12/29 11:54:51;;;;;;;44.10;15.63;;;8.30;99.90;;;;;;4982207;28;20054;-67
2021/12/29 11:57:23;;;;;;;39.53;14.73;;;8.30;99.90;;;;;;4950560;28;20054;-67
2021/12/29 11:59:52;;;;;;;44.63;14.63;;;8.30;99.90;;;;;;4982732;28;20619;-63
2021/12/29 12:02:27;;;;;;;35.25;14.05;;;8.30;99.90;;;;;;4964883;28;20077;-61
2021/12/29 12:05:15;;;;;;;45.65;14.10;;;8.30;99.90;;;;;;4966683;28;20108;-61
2021/12/29 12:07:41;;;;;;;37.47;13.95;;;8.30;99.90;;;;;;4984260;28;20058;-62
2021/12/29 12:10:12;;;;;;;45.97;17.05;;;8.30;99.90;;;;;;4966959;28;20057;-61
2021/12/29 12:12:46;;;;;;;44.83;16.75;;;8.30;99.90;;;;;;4967407;28;20131;-61
2021/12/29 12:15:13;;;;;;;45.45;17.58;;;8.30;99.90;;;;;;4966565;28;20039;-61
2021/12/29 12:17:41;;;;;;;40.47;13.82;;;8.30;99.90;;;;;;4984183;28;20042;-62
2021/12/29 12:20:08;;;;;;;56.95;17.75;;;8.30;99.90;;;;;;4967044;28;20063;-61
2021/12/29 12:23:00;;;;;;;42.80;15.10;;;8.40;99.90;;;;;;4975518;28;20053;-61
2021/12/29 12:25:30;;;;;;;37.15;13.77;;;8.40;99.90;;;;;;4956396;28;20126;-61
2021/12/29 12:28:01;;;;;;;42.50;13.85;;;8.40;99.90;;;;;;4965401;29;20079;-62
2021/12/29 12:30:37;;;;;;;41.88;14.85;;;8.40;99.90;;;;;;4991665;28;20082;-62
2021/12/29 12:33:15;;;;;;;49.92;15.63;;;8.40;99.90;;;;;;4966460;28;20050;-61
2021/12/29 12:35:44;;;;;;;35.88;12.63;;;8.40;99.90;;;;;;4984205;28;20145;-61
2021/12/29 12:38:32;;;;;;;35.42;13.20;;;8.40;99.90;;;;;;4965674;28;20046;-61
2021/12/29 12:41:05;;;;;;;34.47;10.20;;;8.40;99.90;;;;;;4966493;28;20160;-61
2021/12/29 12:43:31;;;;;;;48.10;13.90;;;8.40;99.90;;;;;;4984105;28;20055;-61
2021/12/29 12:45:57;;;;;;;34.83;11.30;;;8.40;99.90;;;;;;4984367;28;20039;-62